nws-alerts: Checking more than four warning/county codes can delay the loading of your pages. You should use a cron job to get the data.

Nearby METAR Reports

 

KOXC - Oxford/Waterbury, Connecticut, USA
Distance from station: NW 7mi, 11km
Updated: 12/03/2021 8:51am
Few Clouds
Few Clouds
 Wind from NW
Wind: NW 20 mph , 31 km/h, Gust: 29 mph , 46 km/h
Temperature: 37°F , 3°C
Wind Chill: 27°F , -3°C
Dew Point: 23°F , -5°C
Humidity: 56%
Barometer: 29.82 inHg , 1009.8 hPa
Clouds: Few Clouds
Visibility: 10 miles , 16 km
Cloud details: Few Clouds 8000 ft
2021/12/03 13:51 KOXC 031351Z 32017G25KT 10SM FEW080 03/M05 A2982 RMK AO2 PK WND 32026/1338 SLP114 T00281050
KHVN - New Haven/Tweed, Connecticut, USA
Distance from station: SE 13mi, 20km
Updated: 12/03/2021 8:53am
Overcast
Overcast
 Wind from NW
Wind: NW 9 mph , 15 km/h, Gust: 21 mph , 33 km/h
Temperature: 43°F , 6°C
Wind Chill: 38°F , 3°C
Dew Point: 27°F , -3°C
Humidity: 53%
Barometer: 29.87 inHg , 1011.5 hPa
Clouds: Overcast
Visibility: 10 miles , 16 km
Cloud details: Overcast 4600 ft
2021/12/03 13:53 KHVN 031353Z 32008G18KT 10SM OVC046 06/M03 A2987 RMK AO2 SLP114 T00611033
 
KMMK - Meriden, Connecticut, USA
Distance from station: NE 13mi, 21km
Updated: 12/03/2021 8:53am
Overcast
Overcast
 Wind from NNW
Wind: NNW 14 mph , 22 km/h
Temperature: 39°F , 4°C
Wind Chill: 31°F , -1°C
Dew Point: 25°F , -4°C
Humidity: 56%
Barometer: 29.87 inHg , 1011.5 hPa
Clouds: Overcast
Visibility: 10 miles , 16 km
Cloud details: Overcast 4500 ft
2021/12/03 13:53 KMMK 031353Z AUTO 34012KT 10SM OVC045 04/M04 A2987 RMK AO2 PRESRR SLP114 T00391044
KBDR - Bridgeport, Connecticut, USA
Distance from station: SSW 17mi, 27km
Updated: 12/03/2021 8:52am
Clear
Clear
 Wind from NW
Wind: NW 15 mph , 24 km/h, Gust: 26 mph , 43 km/h
Temperature: 43°F , 6°C
Wind Chill: 36°F , 2°C
Dew Point: 21°F , -6°C
Humidity: 42%
Barometer: 29.87 inHg , 1011.5 hPa
Clouds: Clear
Visibility: 10 miles , 16 km
2021/12/03 13:52 KBDR 031352Z 31013G23KT 10SM CLR 06/M06 A2987 RMK AO2 SLP115 T00561056
 
KDXR - Danbury, Connecticut, USA
Distance from station: W 23mi, 38km
Updated: 12/03/2021 8:53am
Clear
Clear
 Wind from WNW
Wind: WNW 13 mph , 20 km/h, Gust: 16 mph , 26 km/h
Temperature: 43°F , 6°C
Wind Chill: 36°F , 2°C
Dew Point: 21°F , -6°C
Humidity: 42%
Barometer: 29.86 inHg , 1011.2 hPa
Clouds: Clear
Visibility: 10 miles , 16 km
2021/12/03 13:53 KDXR 031353Z 29011G14KT 10SM CLR 06/M06 A2986 RMK AO2 SLP112 T00561061